createdAt,value
2023-03-18T00:00:10.178Z,2.43
2023-03-18T00:02:38.829Z,1.80
2023-03-18T00:05:09.950Z,1.90
2023-03-18T00:07:37.428Z,1.73
2023-03-18T00:10:10.112Z,1.70
2023-03-18T00:12:38.888Z,2.13
2023-03-18T00:15:11.662Z,2.50
2023-03-18T00:17:41.346Z,2.20
2023-03-18T00:20:10.020Z,2.50
2023-03-18T00:22:38.059Z,2.43
2023-03-18T00:25:07.006Z,2.80
2023-03-18T00:27:34.864Z,3.53
2023-03-18T00:30:01.925Z,3.30
2023-03-18T00:32:28.973Z,3.57
2023-03-18T00:34:56.838Z,4.27
2023-03-18T00:37:30.860Z,4.33
2023-03-18T00:40:05.977Z,4.73
2023-03-18T00:42:47.447Z,5.70
2023-03-18T00:45:17.082Z,6.10
2023-03-18T00:47:44.333Z,5.27
2023-03-18T00:50:11.754Z,5.10
2023-03-18T00:52:39.507Z,4.67
2023-03-18T00:55:06.992Z,5.03
2023-03-18T00:57:34.692Z,5.30
2023-03-18T01:00:02.526Z,4.77
2023-03-18T01:02:29.618Z,3.43
2023-03-18T01:04:57.070Z,4.10
2023-03-18T01:07:24.295Z,4.20
2023-03-18T01:09:50.820Z,5.10
2023-03-18T01:12:18.070Z,4.13
2023-03-18T01:14:44.603Z,3.60
2023-03-18T01:17:11.423Z,3.43
2023-03-18T01:19:38.673Z,3.37
2023-03-18T01:22:05.613Z,3.00
2023-03-18T01:24:37.883Z,3.40
2023-03-18T01:27:06.194Z,3.67
2023-03-18T01:29:33.977Z,3.60
2023-03-18T01:32:02.718Z,3.80
2023-03-18T01:34:29.244Z,4.00
2023-03-18T01:36:55.763Z,4.13
2023-03-18T01:39:25.288Z,3.47
2023-03-18T01:41:52.000Z,3.57
2023-03-18T01:44:27.828Z,3.30
2023-03-18T01:46:56.824Z,3.80
2023-03-18T01:49:42.484Z,3.13
2023-03-18T01:52:21.568Z,4.60
2023-03-18T01:55:06.467Z,3.10
2023-03-18T01:57:34.514Z,3.10
2023-03-18T02:00:04.498Z,3.07
2023-03-18T02:02:42.376Z,3.23
2023-03-18T02:05:11.908Z,2.70
2023-03-18T02:07:42.739Z,3.10
2023-03-18T02:10:14.153Z,2.90
2023-03-18T02:12:46.293Z,2.60
2023-03-18T02:15:22.562Z,2.90
2023-03-18T02:17:57.708Z,2.70
2023-03-18T02:20:36.116Z,2.60
2023-03-18T02:23:27.650Z,2.90
2023-03-18T02:26:03.327Z,3.13
2023-03-18T02:28:32.699Z,2.80
2023-03-18T02:31:04.016Z,3.27
2023-03-18T02:33:39.209Z,4.10
2023-03-18T02:36:29.882Z,3.70
2023-03-18T02:39:03.390Z,3.40
2023-03-18T02:41:33.658Z,2.70
2023-03-18T02:44:00.796Z,2.83
2023-03-18T02:46:45.497Z,3.70
2023-03-18T02:49:13.192Z,2.90
2023-03-18T02:51:41.799Z,2.50
2023-03-18T02:54:15.975Z,2.70
2023-03-18T02:56:44.067Z,3.17
2023-03-18T02:59:11.974Z,2.53
2023-03-18T03:01:41.326Z,2.40
2023-03-18T03:04:08.647Z,2.97
2023-03-18T03:06:36.662Z,2.50
2023-03-18T03:09:05.245Z,2.87
2023-03-18T03:11:33.713Z,2.40
2023-03-18T03:14:09.485Z,2.70
2023-03-18T03:16:37.755Z,2.53
2023-03-18T03:19:05.945Z,3.00
2023-03-18T03:21:35.778Z,3.53
2023-03-18T03:24:06.685Z,2.90
2023-03-18T03:26:34.324Z,2.50
2023-03-18T03:29:01.578Z,2.83
2023-03-18T03:31:28.291Z,3.13
2023-03-18T03:33:54.869Z,2.50
2023-03-18T03:36:21.377Z,2.23
2023-03-18T03:38:48.276Z,2.17
2023-03-18T03:41:15.954Z,2.37
2023-03-18T03:43:43.190Z,2.57
2023-03-18T03:46:10.380Z,2.37
2023-03-18T03:48:39.335Z,2.30
2023-03-18T03:51:10.604Z,2.30
2023-03-18T03:53:37.140Z,2.40
2023-03-18T03:56:04.403Z,2.70
2023-03-18T03:58:31.040Z,2.63
2023-03-18T04:00:58.312Z,2.30
2023-03-18T04:03:25.563Z,2.70
2023-03-18T04:05:52.687Z,2.63
2023-03-18T04:08:22.606Z,2.50
2023-03-18T04:10:50.067Z,2.90
2023-03-18T04:13:16.607Z,2.90
2023-03-18T04:15:43.655Z,2.73
2023-03-18T04:18:14.804Z,2.30
2023-03-18T04:20:41.392Z,2.53
2023-03-18T04:23:19.364Z,2.70
2023-03-18T04:25:46.024Z,2.70
2023-03-18T04:28:14.175Z,2.97
2023-03-18T04:30:40.776Z,2.50
2023-03-18T04:33:12.880Z,2.77
2023-03-18T04:35:42.804Z,2.63
2023-03-18T04:38:11.921Z,2.47
2023-03-18T04:40:38.681Z,2.40
2023-03-18T04:43:05.534Z,2.63
2023-03-18T04:45:34.115Z,2.17
2023-03-18T04:48:02.063Z,1.90
2023-03-18T04:50:33.135Z,2.03
2023-03-18T04:53:00.515Z,2.20
2023-03-18T04:55:29.350Z,2.00
2023-03-18T04:57:56.819Z,2.30
2023-03-18T05:00:25.738Z,2.23
2023-03-18T05:03:01.966Z,2.27
2023-03-18T05:05:28.505Z,2.03
2023-03-18T05:07:55.076Z,1.90
2023-03-18T05:10:23.452Z,1.90
2023-03-18T05:12:50.603Z,1.83
2023-03-18T05:15:25.092Z,1.77
2023-03-18T05:17:54.796Z,2.00
2023-03-18T05:20:21.464Z,1.63
2023-03-18T05:22:49.043Z,1.50
2023-03-18T05:25:26.127Z,1.70
2023-03-18T05:27:54.369Z,1.60
2023-03-18T05:30:31.959Z,1.50
2023-03-18T05:32:59.272Z,1.70
2023-03-18T05:35:43.606Z,1.70
2023-03-18T05:38:10.274Z,1.67
2023-03-18T05:40:37.460Z,1.70
2023-03-18T05:43:11.506Z,1.80
2023-03-18T05:45:45.512Z,2.67
2023-03-18T05:48:15.308Z,3.70
2023-03-18T05:50:50.247Z,3.30
2023-03-18T05:53:19.973Z,2.80
2023-03-18T05:55:50.462Z,2.07
2023-03-18T05:58:18.326Z,2.20
2023-03-18T06:00:46.859Z,2.60
2023-03-18T06:03:14.015Z,2.63
2023-03-18T06:05:40.672Z,2.60
2023-03-18T06:08:07.919Z,2.50
2023-03-18T06:10:36.650Z,2.23
2023-03-18T06:13:03.184Z,2.13
2023-03-18T06:15:30.499Z,2.10
2023-03-18T06:17:57.523Z,2.30
2023-03-18T06:20:24.352Z,1.97
2023-03-18T06:22:51.606Z,1.87
2023-03-18T06:25:20.514Z,2.00
2023-03-18T06:27:48.350Z,1.90
2023-03-18T06:30:17.928Z,2.33
2023-03-18T06:32:44.818Z,2.40
2023-03-18T06:35:12.409Z,2.13
2023-03-18T06:37:40.098Z,2.17
2023-03-18T06:40:09.526Z,2.37
2023-03-18T06:42:36.561Z,1.80
2023-03-18T06:45:25.744Z,1.97
2023-03-18T06:47:58.419Z,2.07
2023-03-18T06:50:25.056Z,2.17
2023-03-18T06:52:51.947Z,2.27
2023-03-18T06:55:25.630Z,1.90
2023-03-18T06:57:52.728Z,2.10
2023-03-18T07:00:24.671Z,2.20
2023-03-18T07:02:52.395Z,2.50
2023-03-18T07:05:23.895Z,2.27
2023-03-18T07:07:51.030Z,2.17
2023-03-18T07:10:22.558Z,3.03
2023-03-18T07:12:50.453Z,2.53
2023-03-18T07:15:21.664Z,3.23
2023-03-18T07:17:52.368Z,3.50
2023-03-18T07:20:19.688Z,2.60
2023-03-18T07:22:46.973Z,1.83
2023-03-18T07:25:14.317Z,1.60
2023-03-18T07:27:42.207Z,1.87
2023-03-18T07:30:09.861Z,1.53
2023-03-18T07:32:38.358Z,1.20
2023-03-18T07:35:06.329Z,3.60
2023-03-18T07:37:33.480Z,4.07
2023-03-18T07:40:00.084Z,3.37
2023-03-18T07:42:26.848Z,3.47
2023-03-18T07:44:53.525Z,2.10
2023-03-18T07:47:20.859Z,1.40
2023-03-18T07:49:47.632Z,1.17
2023-03-18T07:52:14.453Z,1.00
2023-03-18T07:54:41.623Z,1.03
2023-03-18T07:57:08.214Z,1.03
2023-03-18T07:59:34.811Z,1.10
2023-03-18T08:02:01.449Z,1.20
2023-03-18T08:04:28.663Z,1.23
2023-03-18T08:06:55.478Z,1.00
2023-03-18T08:09:22.365Z,1.00
2023-03-18T08:11:48.829Z,1.00
2023-03-18T08:14:15.600Z,1.00
2023-03-18T08:16:42.175Z,1.00
2023-03-18T08:19:08.717Z,0.70
2023-03-18T08:21:35.518Z,0.90
2023-03-18T08:24:02.331Z,1.00
2023-03-18T08:26:28.889Z,0.87
2023-03-18T08:28:55.604Z,0.80
2023-03-18T08:31:22.475Z,0.80
2023-03-18T08:33:49.474Z,0.97
2023-03-18T08:36:16.116Z,0.80
2023-03-18T08:38:43.232Z,0.83
2023-03-18T08:41:10.081Z,0.90
2023-03-18T08:43:38.951Z,0.93
2023-03-18T08:46:06.534Z,0.80
2023-03-18T08:48:33.039Z,0.80
2023-03-18T08:50:59.633Z,0.80
2023-03-18T08:53:26.154Z,1.20
2023-03-18T08:55:52.753Z,0.90
2023-03-18T08:58:19.300Z,0.80
2023-03-18T09:00:45.752Z,0.87
2023-03-18T09:03:13.266Z,0.80
2023-03-18T09:05:40.215Z,0.67
2023-03-18T09:08:06.982Z,0.90
2023-03-18T09:10:33.572Z,0.90
2023-03-18T09:13:00.869Z,0.97
2023-03-18T09:15:27.571Z,0.87
2023-03-18T09:18:10.424Z,1.00
2023-03-18T09:20:38.850Z,0.87
2023-03-18T09:23:05.670Z,0.93
2023-03-18T09:25:32.855Z,0.60
2023-03-18T09:28:00.932Z,1.03
2023-03-18T09:30:27.999Z,0.70
2023-03-18T09:32:54.653Z,0.90
2023-03-18T09:35:21.163Z,0.70
2023-03-18T09:37:48.295Z,0.70
2023-03-18T09:40:28.343Z,0.90
2023-03-18T09:43:29.977Z,1.10
2023-03-18T09:46:35.315Z,0.80
2023-03-18T09:49:09.976Z,0.80
2023-03-18T09:51:47.385Z,0.80
2023-03-18T09:54:22.463Z,0.70
2023-03-18T09:56:52.710Z,0.80
2023-03-18T09:59:35.941Z,0.70
2023-03-18T10:02:05.894Z,0.80
2023-03-18T10:04:44.473Z,0.80
2023-03-18T10:07:17.536Z,0.90
2023-03-18T10:09:55.858Z,1.00
2023-03-18T10:12:35.286Z,1.00
2023-03-18T10:15:19.461Z,0.80
2023-03-18T10:18:23.747Z,1.00
2023-03-18T10:21:18.104Z,0.90
2023-03-18T10:24:09.517Z,0.80
2023-03-18T10:26:50.207Z,0.73
2023-03-18T10:29:38.530Z,0.80
2023-03-18T10:32:48.573Z,0.70
2023-03-18T10:35:37.847Z,0.87
2023-03-18T10:38:27.039Z,1.00
2023-03-18T10:40:55.212Z,0.97
2023-03-18T10:43:29.041Z,0.80
2023-03-18T10:46:02.484Z,0.80
2023-03-18T10:48:39.896Z,0.90
2023-03-18T10:51:21.701Z,0.80
2023-03-18T10:54:13.069Z,1.10
2023-03-18T10:56:39.773Z,0.80
2023-03-18T10:59:16.257Z,0.80
2023-03-18T11:01:49.825Z,0.80
2023-03-18T11:04:21.489Z,0.70
2023-03-18T11:07:03.048Z,0.70
2023-03-18T11:09:39.457Z,1.00
2023-03-18T11:12:14.088Z,0.87
2023-03-18T11:14:42.200Z,1.20
2023-03-18T11:17:19.664Z,0.87
2023-03-18T11:19:48.817Z,0.80
2023-03-18T11:22:23.000Z,0.70
2023-03-18T11:25:11.487Z,0.90
2023-03-18T11:27:40.988Z,0.90
2023-03-18T11:30:24.324Z,0.90
2023-03-18T11:33:04.048Z,0.80
2023-03-18T11:35:40.706Z,0.97
2023-03-18T11:38:14.647Z,0.60
2023-03-18T11:40:41.140Z,1.03
2023-03-18T11:43:18.786Z,0.90
2023-03-18T11:45:48.724Z,0.87
2023-03-18T11:48:22.481Z,0.70
2023-03-18T11:50:57.855Z,0.63
2023-03-18T11:53:54.348Z,0.70
2023-03-18T11:56:34.221Z,0.80
2023-03-18T11:59:22.643Z,0.97
2023-03-18T12:02:16.339Z,0.90
2023-03-18T12:05:21.263Z,1.10
2023-03-18T12:08:00.760Z,0.90
2023-03-18T12:10:36.187Z,1.00
2023-03-18T12:13:08.120Z,0.90
2023-03-18T12:15:37.651Z,1.00
2023-03-18T12:18:34.269Z,0.67
2023-03-18T12:21:12.244Z,1.20
2023-03-18T12:24:02.083Z,0.90
2023-03-18T12:26:46.504Z,0.90
2023-03-18T12:29:37.374Z,0.97
2023-03-18T12:32:09.645Z,0.80
2023-03-18T12:34:50.880Z,1.00
2023-03-18T12:37:31.194Z,0.80
2023-03-18T12:40:17.415Z,0.80
2023-03-18T12:43:02.421Z,1.40
2023-03-18T12:45:39.359Z,1.00
2023-03-18T12:48:43.748Z,0.97
2023-03-18T12:51:18.175Z,0.90
2023-03-18T12:53:47.539Z,0.80
2023-03-18T12:56:18.542Z,0.90
2023-03-18T12:58:51.179Z,0.90
2023-03-18T13:01:25.007Z,0.90
2023-03-18T13:03:58.833Z,0.67
2023-03-18T13:06:41.872Z,0.97
2023-03-18T13:09:37.073Z,0.87
2023-03-18T13:12:14.538Z,0.80
2023-03-18T13:14:56.418Z,0.70
2023-03-18T13:17:38.176Z,1.00
2023-03-18T13:20:20.502Z,0.87
2023-03-18T13:22:59.160Z,0.90
2023-03-18T13:25:49.426Z,0.80
2023-03-18T13:28:25.563Z,0.97
2023-03-18T13:31:07.029Z,0.80
2023-03-18T13:34:26.460Z,0.93
2023-03-18T13:37:09.975Z,0.70
2023-03-18T13:40:03.943Z,0.67
2023-03-18T13:42:36.113Z,1.10
2023-03-18T13:45:22.349Z,0.80
2023-03-18T13:48:00.529Z,1.30
2023-03-18T13:50:33.922Z,0.80
2023-03-18T13:53:02.867Z,0.77
2023-03-18T13:55:42.716Z,1.00
2023-03-18T13:58:19.426Z,0.90
2023-03-18T14:00:55.332Z,0.70
2023-03-18T14:03:30.460Z,1.00
2023-03-18T14:06:09.408Z,0.80
2023-03-18T14:08:38.770Z,0.90
2023-03-18T14:11:17.483Z,0.70
2023-03-18T14:13:45.201Z,0.90
2023-03-18T14:16:23.189Z,1.10
2023-03-18T14:19:05.699Z,0.70
2023-03-18T14:21:34.296Z,0.90
2023-03-18T14:24:18.099Z,0.90
2023-03-18T14:26:49.333Z,0.80
2023-03-18T14:29:34.699Z,0.60
2023-03-18T14:32:08.291Z,0.90
2023-03-18T14:35:12.873Z,1.00
2023-03-18T14:37:58.830Z,0.93
2023-03-18T14:40:25.614Z,0.80
2023-03-18T14:43:30.022Z,0.70
2023-03-18T14:46:00.098Z,0.73
2023-03-18T14:48:32.828Z,0.80
2023-03-18T14:51:08.134Z,1.13
2023-03-18T14:53:39.694Z,0.80
2023-03-18T14:56:17.588Z,0.80
2023-03-18T14:58:47.376Z,0.73
2023-03-18T15:01:16.091Z,1.00
2023-03-18T15:03:46.612Z,0.80
2023-03-18T15:06:23.109Z,0.80
2023-03-18T15:08:58.864Z,0.80
2023-03-18T15:11:25.557Z,0.80
2023-03-18T15:13:56.858Z,0.77
2023-03-18T15:16:25.200Z,0.70
2023-03-18T15:18:54.664Z,0.70
2023-03-18T15:21:28.868Z,0.90
2023-03-18T15:24:00.106Z,0.70
2023-03-18T15:26:33.936Z,0.80
2023-03-18T15:29:17.916Z,0.70
2023-03-18T15:31:45.139Z,0.80
2023-03-18T15:34:22.594Z,0.80
2023-03-18T15:36:55.429Z,0.70
2023-03-18T15:39:28.544Z,0.90
2023-03-18T15:41:56.917Z,0.90
2023-03-18T15:44:30.580Z,0.73
2023-03-18T15:47:13.507Z,1.20
2023-03-18T15:50:02.003Z,0.73
2023-03-18T15:52:34.551Z,0.90
2023-03-18T15:55:02.369Z,0.80
2023-03-18T15:57:34.943Z,0.90
2023-03-18T16:00:01.787Z,0.90
2023-03-18T16:02:38.592Z,0.80
2023-03-18T16:05:16.722Z,1.10
2023-03-18T16:07:43.223Z,0.80
2023-03-18T16:10:10.587Z,0.70
2023-03-18T16:12:39.552Z,0.90
2023-03-18T16:15:07.666Z,1.00
2023-03-18T16:17:34.141Z,0.90
2023-03-18T16:20:02.777Z,0.77
2023-03-18T16:22:29.287Z,0.67
2023-03-18T16:24:55.775Z,0.70
2023-03-18T16:27:39.999Z,0.80
2023-03-18T16:30:16.026Z,0.80
2023-03-18T16:32:42.867Z,1.00
2023-03-18T16:35:15.689Z,0.60
2023-03-18T16:37:44.523Z,0.70
2023-03-18T16:40:24.437Z,0.80
2023-03-18T16:42:52.556Z,0.90
2023-03-18T16:45:23.542Z,0.80
2023-03-18T16:47:51.859Z,0.60
2023-03-18T16:50:19.756Z,1.00
2023-03-18T16:52:47.349Z,0.90
2023-03-18T16:55:18.224Z,1.03
2023-03-18T16:57:51.466Z,0.77
2023-03-18T17:00:31.770Z,1.40
2023-03-18T17:02:59.512Z,1.40
2023-03-18T17:05:26.162Z,1.57
2023-03-18T17:07:53.170Z,1.00
2023-03-18T17:10:22.641Z,1.10
2023-03-18T17:13:02.313Z,1.00
2023-03-18T17:15:31.863Z,0.80
2023-03-18T17:17:59.625Z,0.90
2023-03-18T17:20:28.890Z,0.97
2023-03-18T17:22:55.853Z,0.93
2023-03-18T17:25:24.518Z,0.87
2023-03-18T17:27:56.107Z,0.90
2023-03-18T17:30:34.652Z,1.00
2023-03-18T17:33:03.451Z,1.07
2023-03-18T17:35:30.301Z,1.30
2023-03-18T17:37:57.115Z,1.07
2023-03-18T17:40:28.190Z,1.30
2023-03-18T17:42:54.808Z,1.40
2023-03-18T17:45:32.223Z,1.20
2023-03-18T17:48:15.417Z,1.37
2023-03-18T17:50:44.261Z,1.40
2023-03-18T17:53:22.662Z,1.40
2023-03-18T17:55:51.150Z,1.90
2023-03-18T17:58:21.702Z,3.53
2023-03-18T18:00:48.899Z,5.60
2023-03-18T18:03:36.585Z,6.73
2023-03-18T18:06:03.607Z,7.87
2023-03-18T18:08:31.572Z,8.43
2023-03-18T18:11:04.854Z,9.43
2023-03-18T18:13:32.800Z,9.77
2023-03-18T18:15:59.327Z,9.20
2023-03-18T18:18:28.959Z,9.10
2023-03-18T18:21:04.430Z,8.63
2023-03-18T18:23:33.588Z,7.80
2023-03-18T18:26:04.481Z,7.20
2023-03-18T18:28:33.533Z,7.00
2023-03-18T18:31:01.093Z,7.40
2023-03-18T18:33:28.103Z,7.27
2023-03-18T18:35:54.897Z,5.90
2023-03-18T18:38:21.379Z,5.47
2023-03-18T18:40:49.575Z,6.30
2023-03-18T18:43:16.010Z,5.83
2023-03-18T18:45:42.866Z,6.00
2023-03-18T18:48:24.256Z,5.83
2023-03-18T18:50:51.328Z,5.33
2023-03-18T18:53:23.031Z,6.77
2023-03-18T18:55:50.528Z,6.97
2023-03-18T18:58:19.053Z,8.77
2023-03-18T19:00:51.266Z,9.03
2023-03-18T19:03:22.873Z,6.60
2023-03-18T19:05:51.908Z,6.53
2023-03-18T19:08:27.662Z,6.60
2023-03-18T19:10:59.191Z,4.90
2023-03-18T19:13:29.418Z,4.40
2023-03-18T19:15:59.365Z,3.93
2023-03-18T19:18:31.302Z,3.27
2023-03-18T19:20:58.322Z,3.03
2023-03-18T19:23:30.293Z,3.53
2023-03-18T19:25:58.363Z,3.80
2023-03-18T19:28:47.849Z,4.30
2023-03-18T19:31:20.421Z,4.57
2023-03-18T19:33:50.602Z,5.57
2023-03-18T19:36:31.568Z,4.80
2023-03-18T19:39:00.189Z,4.13
2023-03-18T19:41:27.251Z,3.90
2023-03-18T19:43:58.191Z,4.50
2023-03-18T19:46:55.580Z,3.90
2023-03-18T19:49:28.478Z,4.97
2023-03-18T19:51:55.910Z,5.70
2023-03-18T19:54:27.339Z,5.80
2023-03-18T19:56:55.778Z,5.70
2023-03-18T19:59:24.778Z,4.63
2023-03-18T20:01:51.602Z,5.00
2023-03-18T20:04:20.013Z,5.63
2023-03-18T20:06:53.433Z,5.50
2023-03-18T20:09:25.034Z,4.30
2023-03-18T20:12:04.441Z,4.57
2023-03-18T20:14:38.091Z,4.17
2023-03-18T20:17:28.250Z,4.37
2023-03-18T20:19:54.876Z,3.63
2023-03-18T20:22:34.327Z,4.10
2023-03-18T20:25:01.955Z,4.17
2023-03-18T20:27:29.792Z,3.87
2023-03-18T20:29:56.736Z,3.53
2023-03-18T20:32:23.632Z,4.00
2023-03-18T20:34:50.715Z,3.60
2023-03-18T20:37:34.682Z,3.63
2023-03-18T20:40:03.768Z,4.30
2023-03-18T20:42:30.399Z,3.97
2023-03-18T20:44:56.844Z,4.13
2023-03-18T20:47:23.340Z,4.30
2023-03-18T20:49:49.845Z,4.70
2023-03-18T20:52:27.347Z,4.77
2023-03-18T20:54:55.152Z,4.40
2023-03-18T20:57:21.674Z,4.70
2023-03-18T20:59:48.665Z,4.90
2023-03-18T21:02:32.962Z,5.20
2023-03-18T21:05:01.588Z,5.70
2023-03-18T21:07:28.842Z,5.40
2023-03-18T21:09:55.426Z,5.20
2023-03-18T21:12:22.216Z,4.67
2023-03-18T21:14:49.724Z,4.10
2023-03-18T21:17:21.176Z,5.03
2023-03-18T21:19:51.822Z,4.57
2023-03-18T21:22:24.905Z,4.83
2023-03-18T21:24:52.253Z,5.30
2023-03-18T21:27:27.383Z,5.17
2023-03-18T21:29:55.521Z,5.43
2023-03-18T21:32:31.483Z,5.17
2023-03-18T21:34:58.802Z,5.70
2023-03-18T21:37:27.369Z,5.93
2023-03-18T21:39:54.253Z,6.43
2023-03-18T21:42:27.806Z,7.03
2023-03-18T21:44:55.963Z,7.77
2023-03-18T21:47:25.619Z,7.10
2023-03-18T21:49:52.270Z,6.93
2023-03-18T21:52:27.065Z,5.60
2023-03-18T21:54:53.567Z,4.60
2023-03-18T21:57:22.055Z,4.33
2023-03-18T21:59:49.828Z,4.40
2023-03-18T22:02:33.073Z,4.67
2023-03-18T22:05:01.699Z,4.67
2023-03-18T22:07:29.938Z,4.87
2023-03-18T22:09:57.243Z,5.23
2023-03-18T22:12:29.615Z,5.47
2023-03-18T22:14:57.063Z,5.30
2023-03-18T22:17:31.550Z,5.10
2023-03-18T22:19:59.957Z,5.13
2023-03-18T22:22:29.883Z,5.23
2023-03-18T22:24:56.637Z,5.50
2023-03-18T22:27:28.936Z,5.47
2023-03-18T22:29:58.063Z,5.50
2023-03-18T22:32:33.435Z,4.50
2023-03-18T22:35:00.224Z,4.87
2023-03-18T22:37:27.149Z,5.03
2023-03-18T22:39:54.044Z,5.23
2023-03-18T22:42:23.921Z,5.00
2023-03-18T22:44:50.380Z,4.67
2023-03-18T22:47:19.852Z,4.33
2023-03-18T22:49:46.757Z,4.20
2023-03-18T22:52:31.569Z,4.27
2023-03-18T22:55:01.046Z,4.70
2023-03-18T22:57:28.286Z,4.97
2023-03-18T22:59:56.598Z,5.90
2023-03-18T23:02:26.426Z,6.23
2023-03-18T23:04:54.841Z,6.03
2023-03-18T23:07:32.928Z,6.50
2023-03-18T23:10:02.639Z,6.87
2023-03-18T23:12:30.330Z,7.40
2023-03-18T23:14:57.229Z,6.30
2023-03-18T23:17:27.026Z,5.80
2023-03-18T23:19:54.606Z,5.60
2023-03-18T23:22:34.181Z,4.43
2023-03-18T23:25:01.121Z,5.00
2023-03-18T23:27:28.420Z,4.67
2023-03-18T23:29:55.782Z,5.03
2023-03-18T23:32:24.892Z,4.50
2023-03-18T23:34:51.667Z,4.37
2023-03-18T23:37:18.679Z,4.43
2023-03-18T23:39:46.359Z,4.50
2023-03-18T23:42:18.141Z,4.30
2023-03-18T23:44:44.864Z,4.40
2023-03-18T23:47:12.640Z,4.47
2023-03-18T23:49:39.254Z,4.93
2023-03-18T23:52:09.210Z,5.07
2023-03-18T23:54:35.889Z,5.47
2023-03-18T23:57:03.896Z,6.53
2023-03-18T23:59:30.866Z,6.33
